Friday, October 19, 2018, 3:54 AM EDT
Back to Local

KESN, Easton / Newman Field

Location: Easton, MD, United States Lat: 38.8
Local Time: 3:54 AM EDT ( 7:54 GMT) Lon: -76.067
Time Zone: US/Eastern Elev: 72 ft

Show me the last for .
Show Decoded

2018-10-19 03:27 METAR KESN 190735Z AUTO 00000KT 10SM CLR 05/04 A3041 RMK AO2 T00500041 =
2018-10-19 03:06 METAR KESN 190715Z AUTO 00000KT 10SM CLR 06/04 A3041 RMK AO2 T00550043 =
2018-10-19 02:55 METAR KESN 190655Z AUTO 00000KT 10SM CLR 05/04 A3041 RMK AO2 T00540042 =
2018-10-19 02:28 METAR KESN 190635Z AUTO 00000KT 10SM CLR 05/04 A3041 RMK AO2 T00530041 =
2018-10-19 02:07 METAR KESN 190615Z AUTO 00000KT 10SM CLR 06/04 A3042 RMK AO2 T00550042 =
2018-10-19 01:55 METAR KESN 190555Z AUTO 00000KT 10SM CLR 06/04 A3042 RMK AO2 T00550043 10095
                 20055 401420055 =
2018-10-19 01:27 METAR KESN 190535Z AUTO 00000KT 10SM CLR 06/05 A3041 RMK AO2 T00570045 =
2018-10-19 01:07 METAR KESN 190515Z AUTO 00000KT 10SM CLR 06/05 A3042 RMK AO2 T00610047 =
2018-10-19 00:55 METAR KESN 190455Z AUTO 00000KT 10SM CLR 06/05 A3042 RMK AO2 T00600045 =
2018-10-19 00:29 METAR KESN 190435Z AUTO 00000KT 10SM CLR 06/05 A3042 RMK AO2 T00610046 =
2018-10-19 00:09 METAR KESN 190415Z AUTO 00000KT 10SM CLR 07/05 A3042 RMK AO2 T00650046 =
2018-10-18 23:55 METAR KESN 190355Z AUTO 00000KT 10SM CLR 06/05 A3042 RMK AO2 T00630045 =
2018-10-18 23:28 METAR KESN 190335Z AUTO 00000KT 10SM CLR 06/05 A3042 RMK AO2 T00630046 =
2018-10-18 23:08 METAR KESN 190315Z AUTO 00000KT 10SM CLR 07/05 A3043 RMK AO2 T00650045 =
2018-10-18 22:55 METAR KESN 190255Z AUTO 00000KT 10SM CLR 07/04 A3043 RMK AO2 T00660044 =
2018-10-18 22:26 METAR KESN 190235Z AUTO 00000KT 10SM CLR 07/05 A3043 RMK AO2 T00670046 =
2018-10-18 22:07 METAR KESN 190215Z AUTO 00000KT 10SM CLR 07/04 A3043 RMK AO2 T00730044 =
2018-10-18 21:45 METAR KESN 190145Z 00000KT 10SM SKC 08/04 A3043 =
2018-10-18 20:50 METAR KESN 190050Z 00000KT 10SM SKC 08/04 A3042 =
2018-10-18 19:50 METAR KESN 182350Z 00000KT 10SM SKC 09/04 A3043 =
2018-10-18 18:50 METAR KESN 182250Z 00000KT 10SM SKC 10/04 A3043 =
2018-10-18 17:50 METAR KESN 182150Z 00000KT 10SM SKC 13/02 A3041 =
2018-10-18 16:48 METAR KESN 182048Z 34005KT 10SM SKC 14/00 A3041 =
2018-10-18 15:45 METAR KESN 181945Z 32006G13KT 10SM FEW120 14/00 A3042 =
2018-10-18 14:50 METAR KESN 181850Z 32010G15KT 10SM FEW120 14/00 A3042 =
2018-10-18 13:45 METAR KESN 181745Z 28008G15KT 10SM FEW120 14/00 A3044 =
2018-10-18 12:50 METAR KESN 181650Z 30008KT 10SM SCT100 13/M01 A3045 =
2018-10-18 11:54 METAR KESN 181554Z 29006G16KT 10SM SCT070 13/M01 A3046 =
2018-10-18 10:52 METAR KESN 181452Z 33010G18KT 10SM SCT080 12/M01 A3046 =
2018-10-18 09:50 METAR KESN 181350Z 32014KT 10SM SCT060 11/M01 A3045 =
2018-10-18 08:50 METAR KESN 181250Z 32012G16KT 10SM BKN040 10/M02 A3044 =
2018-10-18 07:50 METAR KESN 181150Z 34008KT 10SM BKN060 09/M02 A3042 =
2018-10-18 06:50 METAR KESN 181050Z 34005KT 10SM FEW060 08/M02 A3039 =
2018-10-18 05:50 METAR KESN 180950Z 36008KT 10SM SCT060 09/M02 A3037 =
2018-10-18 05:46 METAR KESN 180946Z AUTO 01007KT 10SM BKN060 10/M01 A3037 RMK AO2 T00991012 =
2018-10-18 05:26 METAR KESN 180935Z AUTO 02008KT 10SM BKN060 10/00 A3037 RMK AO2 T00960000 =
2018-10-18 05:08 METAR KESN 180915Z AUTO 03005KT 10SM SCT060 10/01 A3036 RMK AO2 T00960007 =
2018-10-18 04:55 METAR KESN 180855Z AUTO 02008KT 10SM SCT060 11/M01 A3035 RMK AO2 T01061007 =
2018-10-18 04:28 METAR KESN 180835Z AUTO 34010G18KT 10SM BKN060 11/M02 A3034 RMK AO2 T01091022 =
2018-10-18 04:07 METAR KESN 180815Z AUTO 34012G24KT 10SM CLR 11/M03 A3033 RMK AO2 T01111027 =
2018-10-18 03:55 METAR KESN 180755Z AUTO 33020G26KT 10SM SCT070 SCT120 12/M01 A3033 RMK AO2
                 T01151015 =

Support USWX by starting your Amazon purchase here.